Latest Weather Observations for Hughenden

IDQ60801

Issued at 11:35 pm EST Friday 18 April 2014 (issued every 30 minutes, with the page automatically refreshed every 10 minutes)

About weather observations | Map of weather stations | Latest weather observations for QLD | Other Formats
Station Details ID: 030022 Name: HUGHENDEN AIRPORT Lat: -20.82 Lon: 144.23 Height: 316.4 m
Data from the previous 72 hours. | See also: Recent months at Hughenden
Date/Time
EST
Temp
°C
App
Temp
°C
Dew
Point
Rel
Hum
%
Delta-T
°C
Wind Press
QNH
hPa
Press
MSL
hPa
Rain
since 9 am
mm
Dir
 
Spd
km/h
Gust
km/h
Spd
kts
Gust
kts
18/11:30pm 22.5 20.3 6.3 35 8.4 S 7 9 4 5 1015.9 - 0.0
18/11:00pm 24.8 21.1 6.5 31 9.6 ESE 15 19 8 10 1016.0 - 0.0
18/10:30pm 23.1 19.8 6.4 34 8.7 ESE 13 15 7 8 1016.0 - 0.0
18/10:00pm 23.0 19.9 5.4 32 9.0 SSE 11 13 6 7 1015.9 - 0.0
18/09:30pm 23.5 20.5 5.9 32 9.1 S 11 13 6 7 1015.8 - 0.0
18/09:00pm 24.0 21.5 6.7 33 9.1 ESE 9 11 5 6 1015.8 1014.0 0.0
18/08:30pm 25.2 22.5 7.3 32 9.6 S 11 13 6 7 1015.4 - 0.0
18/08:00pm 26.0 23.5 8.0 32 9.8 SSE 11 13 6 7 1015.0 - 0.0
18/07:30pm 26.7 24.4 9.1 33 9.8 SSE 11 11 6 6 1014.7 - 0.0
18/07:00pm 27.7 25.5 9.5 32 10.2 S 11 11 6 6 1014.2 - 0.0
18/06:30pm 29.1 27.1 8.7 28 11.4 SE 9 9 5 5 1013.8 - 0.0
18/06:00pm 30.8 28.4 8.5 25 12.5 SE 11 13 6 7 1013.4 1011.6 0.0
18/05:30pm 31.8 28.8 7.5 22 13.5 S 13 17 7 9 1013.3 - 0.0
18/05:00pm 32.3 29.3 7.9 22 13.7 S 13 19 7 10 1013.2 - 0.0
18/04:30pm 33.1 29.9 8.5 22 14.0 S 15 22 8 12 1012.9 - 0.0
18/04:00pm 32.7 30.2 8.2 22 13.8 ESE 11 15 6 8 1012.9 - 0.0
18/03:30pm 33.0 29.4 8.5 22 13.9 S 17 24 9 13 1012.9 - 0.0
18/03:00pm 32.9 30.1 8.4 22 13.9 SE 13 19 7 10 1013.0 1011.2 0.0
18/02:30pm 32.9 29.9 7.7 21 14.1 SSE 13 26 7 14 1013.1 - 0.0
18/02:00pm 32.2 30.0 7.8 22 13.6 SE 9 17 5 9 1013.3 - 0.0
18/01:30pm 32.0 30.0 10.1 26 12.7 S 11 24 6 13 1013.8 - 0.0
18/01:00pm 31.7 29.9 9.3 25 12.8 SSW 9 15 5 8 1014.3 - 0.0
18/12:30pm 32.2 30.1 9.7 25 13.0 SSW 11 20 6 11 1014.8 - 0.0
18/12:00pm 30.5 29.0 10.5 29 11.6 ESE 9 20 5 11 1015.2 1013.4 0.0
18/11:30am 30.9 30.1 12.8 33 10.9 NE 9 17 5 9 1015.6 - 0.0
18/11:00am 29.5 28.5 14.5 40 9.2 ENE 13 20 7 11 1016.0 - 0.0
18/10:30am 28.7 28.8 15.6 45 8.1 SSE 9 13 5 7 1016.3 - 0.0
18/10:00am 27.8 27.1 15.5 47 7.6 ENE 13 17 7 9 1016.5 - 0.0
18/09:30am 27.0 26.7 15.4 49 7.1 NE 11 17 6 9 1016.6 - 0.0
18/09:00am 25.7 25.9 15.7 54 6.2 NE 9 13 5 7 1016.6 1014.8 0.0
18/08:30am 24.4 24.0 15.3 57 5.5 NE 11 13 6 7 1016.5 - 0.0
18/08:00am 23.4 23.5 16.4 64 4.3 E 11 13 6 7 1016.4 - 0.0
18/07:30am 21.4 22.0 16.8 75 2.8 ESE 9 11 5 6 1016.2 - 0.0
18/07:00am 19.3 20.1 16.3 83 1.8 ESE 7 9 4 5 1015.9 - 0.0
18/06:30am 18.9 18.8 16.1 84 1.7 SE 11 13 6 7 1015.8 - 0.0
18/06:00am 19.6 19.4 16.6 83 1.8 SE 13 15 7 8 1015.6 1013.8 0.0
18/05:30am 19.4 19.7 16.1 81 2.0 ESE 9 9 5 5 1015.4 - 0.0
18/05:00am 19.7 19.7 16.3 81 2.1 ESE 11 11 6 6 1015.0 - 0.0
18/04:30am 19.7 20.4 16.0 79 2.2 ESE 7 9 4 5 1015.0 - 0.0
18/04:00am 20.2 20.6 16.4 79 2.3 ESE 9 11 5 6 1014.9 - 0.0
18/03:30am 20.3 20.3 16.3 78 2.4 ESE 11 13 6 7 1014.9 - 0.0
18/03:00am 20.7 21.0 16.1 75 2.8 ESE 9 9 5 5 1015.0 1013.2 0.0
18/02:30am 21.1 21.9 16.3 74 2.9 ESE 7 9 4 5 1015.3 - 0.0
18/02:00am 21.6 22.0 16.3 72 3.2 ESE 9 11 5 6 1015.5 - 0.0
18/01:30am 22.8 23.8 16.8 69 3.7 E 7 9 4 5 1015.7 - 0.0
18/01:00am 23.1 23.7 16.9 68 3.9 ENE 9 11 5 6 1016.1 - 0.0
18/12:30am 22.7 23.0 16.9 70 3.6 E 11 11 6 6 1016.3 - 0.0
18/12:00am 22.4 22.7 16.0 67 3.9 SE 9 11 5 6 1016.5 1014.7 0.0
 
Date/Time
EST
Temp
°C
App
Temp
°C
Dew
Point
Rel
Hum
%
Delta-T
°C
Wind Press
QNH
hPa
Press
MSL
hPa
Rain
since 9 am
mm
Dir
 
Spd
km/h
Gust
km/h
Spd
kts
Gust
kts
17/11:30pm 24.2 24.3 16.5 62 4.8 ENE 11 15 6 8 1016.4 - 0.0
17/11:00pm 24.2 25.1 16.2 61 4.9 ENE 6 9 3 5 1016.6 - 0.0
17/10:30pm 25.1 25.3 16.8 60 5.2 E 11 15 6 8 1016.4 - 0.0
17/10:00pm 25.3 25.5 16.7 59 5.4 ENE 11 15 6 8 1016.2 - 0.0
17/09:30pm 25.6 25.3 16.4 56 5.7 NE 13 19 7 10 1016.2 - 0.0
17/09:00pm 25.9 25.4 15.9 54 6.2 NE 13 15 7 8 1016.0 1014.2 0.0
17/08:30pm 26.8 25.6 16.1 52 6.7 NE 17 24 9 13 1015.7 - 0.0
17/08:00pm 26.2 25.7 15.0 50 6.8 E 11 15 6 8 1015.2 - 0.0
17/07:30pm 26.6 26.2 14.0 46 7.6 ESE 9 11 5 6 1014.8 - 0.0
17/07:00pm 27.3 26.6 13.3 42 8.4 ESE 9 11 5 6 1014.3 - 0.0
17/06:30pm 28.8 27.6 12.7 37 9.6 SSE 11 13 6 7 1013.9 - 0.0
17/06:00pm 29.9 27.9 12.8 35 10.2 SSE 15 20 8 11 1013.6 1011.7 0.0
17/05:30pm 30.8 27.8 12.7 33 10.9 S 20 26 11 14 1013.3 - 0.0
17/05:00pm 31.0 27.3 12.8 32 10.9 S 24 30 13 16 1013.2 - 0.0
17/04:30pm 31.7 27.5 13.5 33 11.1 S 28 37 15 20 1013.0 - 0.0
17/04:00pm 32.4 30.1 13.1 31 11.7 SSE 17 24 9 13 1012.9 - 0.0
17/03:30pm 32.3 30.5 12.0 29 12.1 SE 13 19 7 10 1012.9 - 0.0
17/03:00pm 32.9 32.0 12.5 29 12.3 E 9 13 5 7 1013.2 1011.4 0.0
17/02:30pm 32.4 31.3 13.1 31 11.7 ESE 11 17 6 9 1013.4 - 0.0
17/02:00pm 32.2 31.7 13.9 33 11.2 NE 9 15 5 8 1013.9 - 0.0
17/01:30pm 30.5 29.4 14.2 37 10.0 SSE 13 19 7 10 1014.3 - 0.0
17/01:00pm 31.5 31.4 15.0 36 10.3 SE 9 15 5 8 1014.8 - 0.0
17/12:30pm 31.1 30.3 15.1 38 10.0 ESE 13 22 7 12 1015.3 - 0.0
17/12:00pm 31.3 31.1 16.8 41 9.3 SE 13 20 7 11 1015.9 1014.1 0.0
17/11:30am 30.1 30.4 16.1 42 8.8 SSE 9 15 5 8 1016.5 - 0.0
17/11:00am 29.2 29.3 16.4 46 8.1 SE 11 15 6 8 1017.0 - 0.0
17/10:30am 28.3 28.1 16.6 49 7.4 ESE 13 17 7 9 1017.4 - 0.0
17/10:00am 27.9 28.0 17.4 52 6.7 ENE 13 19 7 10 1017.5 - 0.0
17/09:30am 26.9 27.1 17.7 57 5.9 ENE 13 17 7 9 1017.5 - 0.0
17/09:00am 25.3 26.8 18.0 64 4.6 ENE 7 9 4 5 1017.3 1015.5 0.6
17/08:30am 24.5 26.0 18.0 67 4.1 NE 7 11 4 6 1017.1 - 0.6
17/08:00am 23.8 25.1 17.5 68 4.0 NE 7 9 4 5 1016.7 - 0.6
17/07:30am 23.3 24.8 18.0 72 3.4 ENE 7 9 4 5 1016.3 - 0.6
17/07:00am 22.3 24.6 18.5 79 2.4 ESE 4 11 2 6 1016.1 - 0.6
17/06:30am 22.1 25.0 18.3 79 2.4 CALM 0 0 0 0 1015.5 - 0.6
17/06:00am 22.0 24.8 18.0 78 2.5 CALM 0 0 0 0 1015.1 1013.3 0.6
17/05:30am 22.1 23.5 17.9 77 2.6 SE 7 9 4 5 1014.8 - 0.6
17/05:00am 22.5 23.3 18.1 76 2.8 ESE 11 15 6 8 1014.6 - 0.6
17/04:30am 22.7 24.2 18.0 75 3.0 NE 7 11 4 6 1014.5 - 0.6
17/04:00am 22.6 23.7 17.9 75 3.0 ENE 9 13 5 7 1014.5 - 0.6
17/03:30am 21.9 23.2 18.5 81 2.2 E 9 13 5 7 1014.5 - 0.6
17/03:00am 22.1 24.5 18.9 82 2.0 ESE 4 9 2 5 1014.5 1012.7 0.6
17/02:30am 21.9 22.5 18.7 82 2.0 ENE 13 17 7 9 1014.4 - 0.6
17/02:00am 21.8 22.9 18.8 83 1.9 NNE 11 15 6 8 1014.5 - 0.6
17/01:30am 21.6 21.3 18.2 81 2.1 E 17 26 9 14 1015.0 - 0.6
17/01:00am 21.4 21.7 17.8 80 2.3 E 13 17 7 9 1015.4 - 0.4
17/12:30am 22.0 23.0 17.8 77 2.6 W 9 13 5 7 1015.9 - 0.0
17/12:00am 21.8 22.1 18.0 79 2.4 S 13 15 7 8 1015.7 1013.9 0.0
 
Date/Time
EST
Temp
°C
App
Temp
°C
Dew
Point
Rel
Hum
%
Delta-T
°C
Wind Press
QNH
hPa
Press
MSL
hPa
Rain
since 9 am
mm
Dir
 
Spd
km/h
Gust
km/h
Spd
kts
Gust
kts
16/11:30pm 21.6 20.6 17.6 78 2.5 S 19 24 10 13 1015.7 - 0.0
16/11:00pm 21.9 20.2 17.1 74 3.0 S 22 32 12 17 1015.9 - 0.0
16/10:30pm 23.3 20.6 16.6 66 4.2 S 26 37 14 20 1015.8 - 0.0
16/10:00pm 24.2 23.2 16.5 62 4.8 S 17 22 9 12 1015.6 - 0.0
16/09:30pm 24.4 22.5 16.6 61 4.9 SSW 22 32 12 17 1015.4 - 0.0
16/09:00pm 25.3 23.7 16.4 57 5.5 SSW 20 26 11 14 1015.1 1013.3 0.0
16/08:30pm 25.6 24.4 16.2 56 5.8 S 17 20 9 11 1014.7 - 0.0
16/08:00pm 25.5 23.4 16.1 56 5.8 S 22 28 12 15 1014.4 - 0.0
16/07:30pm 27.0 24.9 15.1 48 7.3 S 20 32 11 17 1013.8 - 0.0
16/07:00pm 28.6 27.7 14.8 43 8.5 NE 13 15 7 8 1013.0 - 0.0
16/06:30pm 29.2 28.4 15.0 42 8.8 NE 13 15 7 8 1012.7 - 0.0
16/06:00pm 30.3 30.0 14.4 38 9.8 NE 9 11 5 6 1012.2 1010.4 0.0
16/05:30pm 30.5 30.0 13.7 35 10.2 NE 9 13 5 7 1012.1 - 0.0
16/05:00pm 30.6 29.1 13.0 34 10.6 NE 13 17 7 9 1011.9 - 0.0
16/04:30pm 31.1 28.9 12.0 31 11.3 NE 15 20 8 11 1012.0 - 0.0
16/04:00pm 31.0 29.5 11.9 31 11.3 ENE 11 13 6 7 1012.1 - 0.0
16/03:30pm 30.8 29.0 12.2 32 11.1 NE 13 19 7 10 1012.3 - 0.0
16/03:00pm 30.6 29.4 15.1 39 9.6 NNE 15 20 8 11 1012.5 1010.7 0.0
16/02:30pm 30.3 29.9 15.2 40 9.4 N 11 19 6 10 1012.9 - 0.0
16/02:00pm 30.1 29.6 15.0 40 9.4 NE 11 19 6 10 1013.1 - 0.0
16/01:30pm 30.0 29.0 14.5 38 9.5 ENE 13 20 7 11 1013.4 - 0.0
16/01:00pm 29.9 29.8 16.0 43 8.7 ENE 11 17 6 9 1013.7 - 0.0
16/12:30pm 29.0 27.6 15.5 44 8.4 ENE 17 22 9 12 1014.2 - 0.0
16/12:00pm 28.6 28.2 16.2 47 7.8 NE 13 20 7 11 1014.7 1012.9 0.0
16/11:30am 28.3 27.3 16.6 49 7.4 NE 17 20 9 11 1015.1 - 0.0
16/11:00am 28.2 27.3 16.8 50 7.2 NE 17 24 9 13 1015.4 - 0.0
16/10:30am 27.5 27.0 17.7 55 6.3 NNE 17 20 9 11 1015.7 - 0.0
16/10:00am 26.7 26.2 17.7 57 5.7 E 17 22 9 12 1015.9 - 0.0
16/09:30am 26.0 25.4 17.6 60 5.3 ENE 17 22 9 12 1016.1 - 0.0
16/09:00am 25.3 24.2 17.2 61 5.1 E 19 20 10 11 1016.1 1014.3 0.0
16/08:30am 25.0 24.0 16.7 60 5.2 ESE 17 22 9 12 1015.8 - 0.0
16/08:00am 24.9 23.8 16.3 59 5.3 ESE 17 20 9 11 1015.6 - 0.0
16/07:30am 24.0 22.4 16.0 61 4.9 E 19 22 10 12 1015.1 - 0.0
16/07:00am 23.1 22.5 15.7 63 4.5 SE 13 19 7 10 1014.9 - 0.0
16/06:30am 23.2 21.4 15.5 62 4.7 SE 19 24 10 13 1014.2 - 0.0
16/06:00am 23.7 22.4 15.7 61 4.9 ESE 17 22 9 12 1014.0 1012.1 0.0
16/05:30am 24.1 22.3 15.9 60 5.0 ESE 20 30 11 16 1013.6 - 0.0
16/05:00am 24.4 23.2 16.1 60 5.1 ESE 17 20 9 11 1013.9 - 0.0
16/04:30am 24.3 23.6 16.3 61 5.0 ESE 15 19 8 10 1013.6 - 0.0
16/04:00am 23.7 23.4 15.5 60 5.0 SSE 11 15 6 8 1013.4 - 0.0
16/03:30am 23.6 23.2 15.1 59 5.1 SE 11 13 6 7 1013.3 - 0.0
16/03:00am 23.6 22.0 14.9 58 5.3 SSE 17 20 9 11 1013.1 1011.3 0.0
16/02:30am 25.1 25.5 16.3 58 5.5 S 9 15 5 8 1013.1 - 0.0
16/02:00am 25.3 24.7 16.7 59 5.4 SSW 15 22 8 12 1013.2 - 0.0
16/01:30am 26.0 27.0 16.3 55 6.0 E 6 9 3 5 1013.1 - 0.0
16/01:00am 26.4 26.8 16.3 53 6.3 ENE 9 13 5 7 1013.0 - 0.0
16/12:30am 26.6 27.0 16.2 52 6.5 ESE 9 11 5 6 1013.3 - 0.0
16/12:00am 26.6 26.6 16.2 52 6.5 ESE 11 13 6 7 1013.6 1011.7 0.0

Other Formats:

Comma delimited format used in spreadsheet applications
http://www.bom.gov.au/fwo/IDQ60801/IDQ60801.94343.axf

JavaScript Object Notation format (JSON) in row-major order
http://www.bom.gov.au/fwo/IDQ60801/IDQ60801.94343.json